Headquarters, Valles Caldera, New Mexico Weather observations

Data are for 10 minute period ending at time listed.
 Day   Time   Solar   Ave.   Ave.  Ave.  Vector  Max.   Baro.   Total    
  of    of     Rad.   Air    Rel.  Wind   Wind   Wind  Press.  Precip.   
Year   Day            Temp.  Hum.  Speed  Dir.   Gust                    
2015   (MST)  Kw/m2    F      %     mph   deg.    mph    mb.     in.     
-------------------------------------------------------------------------
  61    3:20   0.00   37.2    55    2.8   293    10.2   737.8    0.00 
  61    3:30   0.00   36.5    57    1.9   293     3.6   737.7    0.00 
  61    3:40   0.00   36.7    54    4.8   292    10.2   737.7    0.00 
  61    3:50   0.00   36.8    53    4.5   293     9.0   737.8    0.00 
  61    4:00   0.00   36.3    55    2.8   293     6.6   737.8    0.00 
  61    4:10   0.00   36.1    54    3.1   292     7.8   737.7    0.00 
  61    4:20   0.00   36.1    54    4.5   292     8.4   737.7    0.00 
  61    4:30   0.00   36.2    52    3.7   291     6.6   737.6    0.00 
  61    4:40   0.00   36.1    53    4.8   293     8.4   737.5    0.00 
  61    4:50   0.00   35.7    55    2.6   292     5.4   737.4    0.00 
  61    5:00   0.00   35.4    56    2.5   292     6.0   737.4    0.00 
  61    5:10   0.00   35.4    57    2.8   292     4.8   737.4    0.00 
  61    5:20   0.00   34.6    63    1.3   292     3.0   737.4    0.00 
  61    5:30   0.00   34.1    63    2.7   292     5.4   737.4    0.00 
  61    5:40   0.00   35.1    60    4.0   292     7.8   737.4    0.00 
  61    5:50   0.00   34.2    64    1.8   293     4.2   737.4    0.00 
  61    6:00   0.00   34.9    57    4.5   293     7.8   737.4    0.00 
  61    6:10   0.00   35.4    57    3.4   292     7.2   737.4    0.00 
  61    6:20   0.00   35.4    55    3.9   292     8.4   737.2    0.00 
  61    6:30   0.00   35.5    55    2.5   292     4.8   737.1    0.00 
  61    6:40   0.00   35.5    55    2.8   292     7.2   737.0    0.00 
  61    6:50   0.00   36.5    50    4.5   293    11.3   737.0    0.00 
  61    7:00   0.01   36.8    51    3.5   292     7.2   736.9    0.00 
  61    7:10   0.02   37.0    49    4.7   293     9.6   736.9    0.00 
  61    7:20   0.04   37.5    47    5.0   293    10.8   736.9    0.00 
  61    7:30   0.04   37.7    47    7.7   295    14.3   736.9    0.00 
  61    7:40   0.12   38.7    45    5.0   293    10.8   736.8    0.00 
  61    7:50   0.14   40.6    42    5.6   293    11.3   736.8    0.00 
  61    8:00   0.17   40.3    42    7.1   294    14.3   736.8    0.00 
  61    8:10   0.23   41.1    42    7.3   294    13.7   736.9    0.00 
  61    8:20   0.27   41.5    41    8.0   295    16.1   737.0    0.00 
  61    8:30   0.24   41.4    42    6.3   294    12.5   737.1    0.00 
  61    8:40   0.17   40.8    42    8.0   295    14.9   737.2    0.00 
  61    8:50   0.13   39.5    44    6.7   294    12.5   737.2    0.00 
  61    9:00   0.28   39.6    44    6.4   293    12.5   737.1    0.00 
  61    9:10   0.40   42.1    42    6.3   294    16.1   737.2    0.00 
  61    9:20   0.40   42.3    41   10.2   300    16.7   737.2    0.00 
  61    9:30   0.45   43.2    41    7.7   295    14.3   737.0    0.00 
  61    9:40   0.41   43.8    41    8.2   296    14.9   736.9    0.00 
  61    9:50   0.58   43.9    42   11.3   302    20.3   736.9    0.00 
  61   10:00   0.69   44.9    40   11.8   303    22.7   736.8    0.00 
  61   10:10   0.73   44.0    41   19.1   319    34.0   736.9    0.00 
  61   10:20   0.54   42.8    44   15.6   312    23.3   736.9    0.00 
  61   10:30   0.56   43.1    44   13.4   306    20.9   736.6    0.00 
  61   10:40   0.58   42.8    46   13.9   306    23.3   736.5    0.00 
  61   10:50   0.48   42.5    46   16.4   313    25.0   736.3    0.00 
  61   11:00   0.49   42.0    47   16.9   315    27.4   736.2    0.00 
  61   11:10   0.51   42.1    47   15.9   313    25.0   736.2    0.00 
  61   11:20   0.54   41.5    48   18.1   318    26.2   736.2    0.00 
  61   11:30   0.58   42.3    47   15.9   316    24.5   736.1    0.00 
  61   11:40   0.57   42.8    46   15.1   312    25.0   735.9    0.00 
  61   11:50   0.53   42.8    47   12.8   306    21.5   735.9    0.00 
  61   12:00   0.56   42.1    49   16.3   312    28.0   735.8    0.00 
  61   12:10   0.44   42.0    50   14.6   310    26.2   735.5    0.00 
  61   12:20   0.23   41.0    53   14.8   309    24.5   735.3    0.00 
  61   12:30   0.23   40.4    55   13.9   309    23.9   735.2    0.00 
  61   12:40   0.21   40.1    56   12.6   305    23.3   735.0    0.00 
  61   12:50   0.17   39.6    57   13.0   305    22.7   734.8    0.00 
  61   13:00   0.21   39.7    57    9.7   300    20.3   734.6    0.00 
  61   13:10   0.33   40.7    55    9.2   298    15.5   734.2    0.00 
  61   13:20   0.28   40.8    55    7.6   295    14.3   734.1    0.00 
  61   13:30   0.21   40.1    57   14.0   305    25.0   734.0    0.00 
  61   13:40   0.15   39.6    58   11.3   301    20.3   734.0    0.00 
  61   13:50   0.17   39.1    60   11.1   301    20.9   733.9    0.00 
  61   14:00   0.20   39.4    59   12.8   304    32.8   733.7    0.00 
  61   14:10   0.29   39.7    59   10.8   300    20.9   733.6    0.00 
  61   14:20   0.32   40.6    57   14.2   305    25.0   733.3    0.00 
  61   14:30   0.48   41.8    55    9.8   298    20.3   733.2    0.00 
  61   14:40   0.43   42.2    54   11.6   301    23.9   733.2    0.00 
  61   14:50   0.32   41.7    56   15.2   306    27.4   733.1    0.00 
  61   15:00   0.21   41.3    57   13.2   304    20.9   733.1    0.00 
  61   15:10   0.20   41.0    58   13.6   303    25.6   732.9    0.00 
  61   15:20   0.21   40.9    58   12.7   302    24.5   732.8    0.00 
  61   15:30   0.11   40.6    60   12.6   302    28.6   732.8    0.00 
  61   15:40   0.15   40.0    62   12.5   303    22.1   732.6    0.00 
  61   15:50   0.14   40.4    61   14.2   305    27.4   732.4    0.00 
  61   16:00   0.10   40.4    62   15.4   307    23.9   732.2    0.00 
  61   16:10   0.09   40.4    62   16.3   309    29.2   732.1    0.00 
  61   16:20   0.09   40.3    63   15.8   307    30.4   731.9    0.00 
  61   16:30   0.05   40.4    64   14.8   305    28.6   731.8    0.00 
  61   16:40   0.05   40.5    65   15.3   307    29.2   731.7    0.00 
  61   16:50   0.05   40.3    66   13.3   305    27.4   731.7    0.00 
  61   17:00   0.04   40.3    67   14.0   305    28.0   731.7    0.00 
  61   17:10   0.04   40.5    66   17.8   316    44.7   731.6    0.00 
  61   17:20   0.03   40.7    65   16.3   309    34.0   731.5    0.00 
  61   17:30   0.01   40.4    67   15.0   308    28.0   731.6    0.00 
  61   17:40   0.01   40.2    68   14.2   305    24.5   731.5    0.00 
  61   17:50   0.00   39.9    69   12.8   304    22.1   731.5    0.00 
  61   18:00   0.00   39.8    70   11.0   300    20.3   731.5    0.00 
  61   18:10   0.00   39.8    70   12.1   302    26.8   731.4    0.00 
  61   18:20   0.00   39.5    70   12.8   305    24.5   731.4    0.00 
  61   18:30   0.00   39.0    72   15.4   306    28.0   731.3    0.00 
  61   18:40   0.00   37.6    78   15.5   309    30.4   731.3    0.01 
  61   18:50   0.00   37.5    80   10.3   301    17.9   731.5    0.00 
  61   19:00   0.00   37.6    80   11.8   302    31.6   731.5    0.01 
  61   19:10   0.00   37.5    81   11.9   303    21.5   731.6    0.00 
  61   19:20   0.00   37.7    80   14.1   305    29.8   731.6    0.00 
  61   19:30   0.00   37.5    81   13.2   303    26.8   731.5    0.00 
  61   19:40   0.00   37.6    81   11.8   303    26.2   731.6    0.00 
  61   19:50   0.00   37.6    80   13.7   307    31.6   731.7    0.00 
  61   20:00   0.00   37.6    80   10.9   300    29.2   731.6    0.00 
  61   20:10   0.00   37.5    79   14.0   307    28.0   731.4    0.00 
  61   20:20   0.00   34.2    84   16.0   314    52.5   732.4    0.03 
  61   20:30   0.00   31.2    89    7.0   310    21.5   732.7    0.02 
  61   20:40   0.00   29.8    92   12.4   306    23.3   732.8    0.03 
  61   20:50   0.00   29.3    93   12.8   307    26.2   732.9    0.02 
  61   21:00   0.00   28.9    94   12.0   304    25.6   733.2    0.02 
  61   21:10   0.00   28.5    93   12.6   307    31.0   733.3    0.00 
  61   21:20   0.00   28.3    93   13.9   309    25.0   733.3    0.00 
  61   21:30   0.00   28.2    92    9.3   299    19.1   733.3    0.00 
  61   21:40   0.00   28.3    92    5.8   295    13.7   733.3    0.00 
  61   21:50   0.00   28.3    92    7.2   297    14.9   733.3    0.00 
  61   22:00   0.00   28.3    91    8.4   298    20.3   733.4    0.01 
  61   22:10   0.00   28.3    90    6.3   295    12.5   733.4    0.00 
  61   22:20   0.00   28.2    90    6.1   296    14.3   733.7    0.00 
  61   22:30   0.00   27.7    90    8.2   298    15.5   734.0    0.01 
  61   22:40   0.00   26.9    90    7.4   298    16.1   734.0    0.02 
  61   22:50   0.00   26.5    89   11.7   308    26.8   734.0    0.02 
  61   23:00   0.00   26.3    87   13.8   311    29.8   733.9    0.00 
  61   23:10   0.00   26.1    85   11.1   302    25.0   733.8    0.00 
  61   23:20   0.00   25.9    85   10.7   300    19.7   733.9    0.01 
  61   23:30   0.00   25.7    85    8.9   296    16.1   734.0    0.00 
  61   23:40   0.00   25.5    85   10.1   302    25.6   733.5    0.00 
  61   23:50   0.00   25.4    84   11.9   303    23.9   733.4    0.00 
  62    0:00   0.00   25.6    81   10.5   302    32.8   733.4    0.00 
  62    0:10   0.00   25.6    81   12.0   305    23.3   733.1    0.00 
  62    0:20   0.00   26.0    75   13.6   304    35.2   733.1    0.00 
  62    0:30   0.00   26.8    69   13.6   302    28.0   733.1    0.00 
  62    0:40   0.00   26.7    70   12.2   301    22.1   733.0    0.00 
  62    0:50   0.00   26.5    69   13.8   307    26.2   733.0    0.00 
  62    1:00   0.00   26.3    70    9.8   299    19.7   733.0    0.00 
  62    1:10   0.00   26.2    68   12.1   294    29.8   733.0    0.00 
  62    1:20   0.00   26.5    68    7.3   293    21.5   732.7    0.00 
  62    1:30   0.00   26.5    68    9.2   296    22.1   732.9    0.00 
  62    1:40   0.00   26.8    64   10.1   297    26.8   732.9    0.00 
  62    1:50   0.00   26.6    65    8.0   294    18.5   732.7    0.00 
  62    2:00   0.00   26.3    66   11.1   299    32.8   732.9    0.00 
  62    2:10   0.00   26.0    68   10.3   292    29.8   732.7    0.00 
  62    2:20   0.00   25.9    70    6.5   295    17.3   732.6    0.00 
  62    2:30   0.00   25.7    71    6.3   294    11.3   732.6    0.00 
  62    2:40   0.00   25.5    72    6.9   293    16.1   732.4    0.00 
  62    2:50   0.00   25.3    74    7.3   296    15.5   732.4    0.00 
  62    3:00   0.00   25.4    72    9.1   298    20.3   732.2    0.00 
  62    3:10   0.00   25.4    72    9.2   298    20.9   732.1    0.00 

Return to Headquarters, Valles Caldera graphs page.


Western Regional Climate Center,wrcc@dri.edu